sensor_id;sensor_type;location;lat;lon;timestamp;P1;durP1;ratioP1;P2;durP2;ratioP2
26512;SDS011;14186;53.822;10.152;2022-08-27T00:02:18;42.88;;;20.98;;
26512;SDS011;14186;53.822;10.152;2022-08-27T00:07:20;56.53;;;23.38;;
26512;SDS011;14186;53.822;10.152;2022-08-27T00:12:20;48.60;;;22.65;;
26512;SDS011;14186;53.822;10.152;2022-08-27T00:17:20;51.08;;;23.10;;
26512;SDS011;14186;53.822;10.152;2022-08-27T00:22:22;50.95;;;24.58;;
26512;SDS011;14186;53.822;10.152;2022-08-27T00:27:22;50.63;;;24.05;;
26512;SDS011;14186;53.822;10.152;2022-08-27T00:32:22;48.78;;;24.90;;
26512;SDS011;14186;53.822;10.152;2022-08-27T00:37:24;55.30;;;23.25;;
26512;SDS011;14186;53.822;10.152;2022-08-27T00:42:24;52.58;;;23.50;;
26512;SDS011;14186;53.822;10.152;2022-08-27T00:47:25;57.03;;;24.15;;
26512;SDS011;14186;53.822;10.152;2022-08-27T00:52:29;50.67;;;23.67;;
26512;SDS011;14186;53.822;10.152;2022-08-27T00:57:30;50.65;;;23.80;;
26512;SDS011;14186;53.822;10.152;2022-08-27T01:02:30;45.75;;;22.92;;
26512;SDS011;14186;53.822;10.152;2022-08-27T01:07:32;47.78;;;23.52;;
26512;SDS011;14186;53.822;10.152;2022-08-27T01:12:34;60.22;;;24.48;;
26512;SDS011;14186;53.822;10.152;2022-08-27T01:17:35;53.88;;;23.33;;
26512;SDS011;14186;53.822;10.152;2022-08-27T01:22:39;52.13;;;23.10;;
26512;SDS011;14186;53.822;10.152;2022-08-27T01:27:44;57.40;;;23.20;;
26512;SDS011;14186;53.822;10.152;2022-08-27T01:32:45;59.08;;;24.02;;
26512;SDS011;14186;53.822;10.152;2022-08-27T01:37:46;50.65;;;24.08;;
26512;SDS011;14186;53.822;10.152;2022-08-27T01:42:50;59.53;;;25.23;;
26512;SDS011;14186;53.822;10.152;2022-08-27T01:47:50;64.50;;;25.33;;
26512;SDS011;14186;53.822;10.152;2022-08-27T01:52:51;56.58;;;25.20;;
26512;SDS011;14186;53.822;10.152;2022-08-27T01:57:53;63.95;;;26.58;;
26512;SDS011;14186;53.822;10.152;2022-08-27T02:02:54;57.10;;;26.58;;
26512;SDS011;14186;53.822;10.152;2022-08-27T02:07:55;58.50;;;26.63;;
26512;SDS011;14186;53.822;10.152;2022-08-27T02:12:57;69.07;;;28.85;;
26512;SDS011;14186;53.822;10.152;2022-08-27T02:17:57;71.05;;;27.90;;
26512;SDS011;14186;53.822;10.152;2022-08-27T02:22:57;68.13;;;27.52;;
26512;SDS011;14186;53.822;10.152;2022-08-27T02:28:02;68.72;;;27.27;;
26512;SDS011;14186;53.822;10.152;2022-08-27T02:33:03;62.45;;;26.10;;
26512;SDS011;14186;53.822;10.152;2022-08-27T02:38:03;65.03;;;26.80;;
26512;SDS011;14186;53.822;10.152;2022-08-27T02:43:05;66.65;;;27.88;;
26512;SDS011;14186;53.822;10.152;2022-08-27T02:48:05;68.68;;;26.05;;
26512;SDS011;14186;53.822;10.152;2022-08-27T02:53:06;56.70;;;25.85;;
26512;SDS011;14186;53.822;10.152;2022-08-27T02:58:07;61.15;;;26.20;;
26512;SDS011;14186;53.822;10.152;2022-08-27T03:03:07;63.50;;;27.30;;
26512;SDS011;14186;53.822;10.152;2022-08-27T03:08:08;62.35;;;26.85;;
26512;SDS011;14186;53.822;10.152;2022-08-27T03:13:09;57.05;;;24.08;;
26512;SDS011;14186;53.822;10.152;2022-08-27T03:18:09;52.28;;;25.48;;
26512;SDS011;14186;53.822;10.152;2022-08-27T03:23:10;51.47;;;25.00;;
26512;SDS011;14186;53.822;10.152;2022-08-27T03:28:11;58.42;;;25.40;;
26512;SDS011;14186;53.822;10.152;2022-08-27T03:33:12;54.97;;;26.25;;
26512;SDS011;14186;53.822;10.152;2022-08-27T03:38:12;51.03;;;24.42;;
26512;SDS011;14186;53.822;10.152;2022-08-27T03:43:14;50.42;;;22.55;;
26512;SDS011;14186;53.822;10.152;2022-08-27T03:48:15;55.70;;;24.80;;
26512;SDS011;14186;53.822;10.152;2022-08-27T03:53:16;52.45;;;25.40;;
26512;SDS011;14186;53.822;10.152;2022-08-27T03:58:18;57.65;;;24.27;;
26512;SDS011;14186;53.822;10.152;2022-08-27T04:03:18;54.92;;;26.25;;
26512;SDS011;14186;53.822;10.152;2022-08-27T04:08:18;49.92;;;24.75;;
26512;SDS011;14186;53.822;10.152;2022-08-27T04:13:20;54.80;;;25.38;;
26512;SDS011;14186;53.822;10.152;2022-08-27T04:18:21;57.65;;;25.38;;
26512;SDS011;14186;53.822;10.152;2022-08-27T04:23:21;56.90;;;24.40;;
26512;SDS011;14186;53.822;10.152;2022-08-27T04:28:26;54.80;;;24.63;;
26512;SDS011;14186;53.822;10.152;2022-08-27T04:33:26;56.88;;;26.08;;
26512;SDS011;14186;53.822;10.152;2022-08-27T04:38:27;52.47;;;24.65;;
26512;SDS011;14186;53.822;10.152;2022-08-27T04:43:28;59.77;;;24.33;;
26512;SDS011;14186;53.822;10.152;2022-08-27T04:48:28;52.95;;;23.08;;
26512;SDS011;14186;53.822;10.152;2022-08-27T04:53:29;47.23;;;21.17;;
26512;SDS011;14186;53.822;10.152;2022-08-27T04:58:30;52.50;;;22.00;;
26512;SDS011;14186;53.822;10.152;2022-08-27T05:03:30;58.63;;;22.80;;
26512;SDS011;14186;53.822;10.152;2022-08-27T05:08:31;51.40;;;21.02;;
26512;SDS011;14186;53.822;10.152;2022-08-27T05:13:33;47.42;;;22.95;;
26512;SDS011;14186;53.822;10.152;2022-08-27T05:18:34;51.85;;;21.95;;
26512;SDS011;14186;53.822;10.152;2022-08-27T05:23:35;44.83;;;21.95;;
26512;SDS011;14186;53.822;10.152;2022-08-27T05:28:36;49.50;;;20.48;;
26512;SDS011;14186;53.822;10.152;2022-08-27T05:33:37;42.15;;;19.77;;
26512;SDS011;14186;53.822;10.152;2022-08-27T05:38:37;47.53;;;21.25;;
26512;SDS011;14186;53.822;10.152;2022-08-27T05:43:39;41.40;;;19.92;;
26512;SDS011;14186;53.822;10.152;2022-08-27T05:48:39;43.50;;;19.27;;
26512;SDS011;14186;53.822;10.152;2022-08-27T05:53:40;41.85;;;18.52;;
26512;SDS011;14186;53.822;10.152;2022-08-27T05:58:41;31.30;;;17.65;;
26512;SDS011;14186;53.822;10.152;2022-08-27T06:03:42;29.42;;;15.50;;
26512;SDS011;14186;53.822;10.152;2022-08-27T06:08:43;31.10;;;15.50;;
26512;SDS011;14186;53.822;10.152;2022-08-27T06:13:45;29.88;;;15.52;;
26512;SDS011;14186;53.822;10.152;2022-08-27T06:18:46;25.27;;;14.38;;
26512;SDS011;14186;53.822;10.152;2022-08-27T06:23:46;30.10;;;15.88;;
26512;SDS011;14186;53.822;10.152;2022-08-27T06:28:48;30.83;;;15.23;;
26512;SDS011;14186;53.822;10.152;2022-08-27T06:33:48;23.48;;;15.73;;
26512;SDS011;14186;53.822;10.152;2022-08-27T06:38:49;34.60;;;16.50;;
26512;SDS011;14186;53.822;10.152;2022-08-27T06:43:51;34.40;;;17.77;;
26512;SDS011;14186;53.822;10.152;2022-08-27T06:48:53;33.95;;;16.85;;
26512;SDS011;14186;53.822;10.152;2022-08-27T06:53:53;26.85;;;16.88;;
26512;SDS011;14186;53.822;10.152;2022-08-27T06:58:56;31.33;;;17.65;;
26512;SDS011;14186;53.822;10.152;2022-08-27T07:03:58;36.70;;;18.77;;
26512;SDS011;14186;53.822;10.152;2022-08-27T07:08:58;35.08;;;18.00;;
26512;SDS011;14186;53.822;10.152;2022-08-27T07:14:00;31.00;;;16.75;;
26512;SDS011;14186;53.822;10.152;2022-08-27T07:19:01;29.13;;;13.85;;
26512;SDS011;14186;53.822;10.152;2022-08-27T07:24:02;28.65;;;14.30;;
26512;SDS011;14186;53.822;10.152;2022-08-27T07:29:04;26.38;;;13.10;;
26512;SDS011;14186;53.822;10.152;2022-08-27T07:34:05;30.73;;;13.20;;
26512;SDS011;14186;53.822;10.152;2022-08-27T07:39:06;23.20;;;12.45;;
26512;SDS011;14186;53.822;10.152;2022-08-27T07:44:07;28.27;;;13.32;;
26512;SDS011;14186;53.822;10.152;2022-08-27T07:49:09;22.55;;;12.38;;
26512;SDS011;14186;53.822;10.152;2022-08-27T07:54:09;23.60;;;12.70;;
26512;SDS011;14186;53.822;10.152;2022-08-27T07:59:11;25.45;;;11.20;;
26512;SDS011;14186;53.822;10.152;2022-08-27T08:04:11;24.45;;;11.48;;
26512;SDS011;14186;53.822;10.152;2022-08-27T08:09:11;18.20;;;9.05;;
26512;SDS011;14186;53.822;10.152;2022-08-27T08:14:13;18.67;;;9.30;;
26512;SDS011;14186;53.822;10.152;2022-08-27T08:19:13;16.80;;;8.98;;
26512;SDS011;14186;53.822;10.152;2022-08-27T08:24:13;17.92;;;9.07;;
26512;SDS011;14186;53.822;10.152;2022-08-27T08:29:15;21.73;;;11.02;;
26512;SDS011;14186;53.822;10.152;2022-08-27T08:34:15;23.98;;;9.57;;
26512;SDS011;14186;53.822;10.152;2022-08-27T08:39:17;17.58;;;9.32;;
26512;SDS011;14186;53.822;10.152;2022-08-27T08:44:22;26.67;;;9.60;;
26512;SDS011;14186;53.822;10.152;2022-08-27T08:49:29;21.38;;;9.75;;
26512;SDS011;14186;53.822;10.152;2022-08-27T08:54:31;18.33;;;8.98;;
26512;SDS011;14186;53.822;10.152;2022-08-27T08:59:34;25.50;;;9.77;;
26512;SDS011;14186;53.822;10.152;2022-08-27T09:04:35;19.08;;;9.10;;
26512;SDS011;14186;53.822;10.152;2022-08-27T09:09:36;25.63;;;10.57;;
26512;SDS011;14186;53.822;10.152;2022-08-27T09:14:39;15.98;;;7.75;;
26512;SDS011;14186;53.822;10.152;2022-08-27T09:19:41;14.73;;;7.70;;
26512;SDS011;14186;53.822;10.152;2022-08-27T09:24:43;16.90;;;7.65;;
26512;SDS011;14186;53.822;10.152;2022-08-27T09:29:49;14.75;;;7.97;;
26512;SDS011;14186;53.822;10.152;2022-08-27T09:34:49;14.73;;;7.13;;
26512;SDS011;14186;53.822;10.152;2022-08-27T09:39:51;15.68;;;7.18;;
26512;SDS011;14186;53.822;10.152;2022-08-27T09:44:53;19.65;;;7.18;;
26512;SDS011;14186;53.822;10.152;2022-08-27T09:50:04;17.52;;;6.68;;
26512;SDS011;14186;53.822;10.152;2022-08-27T09:55:06;18.67;;;6.53;;
26512;SDS011;14186;53.822;10.152;2022-08-27T10:00:12;19.25;;;7.45;;
26512;SDS011;14186;53.822;10.152;2022-08-27T10:05:13;30.20;;;7.40;;
26512;SDS011;14186;53.822;10.152;2022-08-27T10:10:17;14.35;;;7.32;;
26512;SDS011;14186;53.822;10.152;2022-08-27T10:15:21;13.43;;;6.60;;
26512;SDS011;14186;53.822;10.152;2022-08-27T10:20:24;15.82;;;6.43;;
26512;SDS011;14186;53.822;10.152;2022-08-27T10:25:29;10.73;;;6.28;;
26512;SDS011;14186;53.822;10.152;2022-08-27T10:30:36;16.25;;;5.18;;
26512;SDS011;14186;53.822;10.152;2022-08-27T10:35:38;12.52;;;5.80;;
26512;SDS011;14186;53.822;10.152;2022-08-27T10:40:41;11.60;;;4.93;;
26512;SDS011;14186;53.822;10.152;2022-08-27T10:45:45;15.32;;;6.57;;
26512;SDS011;14186;53.822;10.152;2022-08-27T10:50:47;13.27;;;5.57;;
26512;SDS011;14186;53.822;10.152;2022-08-27T10:55:50;16.35;;;5.28;;
26512;SDS011;14186;53.822;10.152;2022-08-27T11:00:56;10.55;;;4.07;;
26512;SDS011;14186;53.822;10.152;2022-08-27T11:05:57;12.23;;;4.70;;
26512;SDS011;14186;53.822;10.152;2022-08-27T11:11:00;13.48;;;4.68;;
26512;SDS011;14186;53.822;10.152;2022-08-27T11:16:08;10.23;;;4.30;;
26512;SDS011;14186;53.822;10.152;2022-08-27T11:21:12;12.00;;;4.43;;
26512;SDS011;14186;53.822;10.152;2022-08-27T11:26:13;12.25;;;4.00;;
26512;SDS011;14186;53.822;10.152;2022-08-27T11:31:15;10.60;;;4.15;;
26512;SDS011;14186;53.822;10.152;2022-08-27T11:36:23;9.57;;;4.15;;
26512;SDS011;14186;53.822;10.152;2022-08-27T11:46:54;10.95;;;4.07;;
26512;SDS011;14186;53.822;10.152;2022-08-27T11:51:57;10.38;;;3.90;;
26512;SDS011;14186;53.822;10.152;2022-08-27T11:56:58;12.30;;;4.13;;
26512;SDS011;14186;53.822;10.152;2022-08-27T12:02:12;10.18;;;3.35;;
26512;SDS011;14186;53.822;10.152;2022-08-27T12:07:27;10.93;;;3.30;;
26512;SDS011;14186;53.822;10.152;2022-08-27T12:12:32;8.60;;;3.10;;
26512;SDS011;14186;53.822;10.152;2022-08-27T12:17:37;9.40;;;3.67;;
26512;SDS011;14186;53.822;10.152;2022-08-27T12:22:53;9.85;;;3.58;;
26512;SDS011;14186;53.822;10.152;2022-08-27T12:27:56;11.45;;;3.72;;
26512;SDS011;14186;53.822;10.152;2022-08-27T12:32:58;7.13;;;2.75;;
26512;SDS011;14186;53.822;10.152;2022-08-27T12:38:06;7.47;;;2.67;;
26512;SDS011;14186;53.822;10.152;2022-08-27T12:43:09;8.43;;;2.53;;
26512;SDS011;14186;53.822;10.152;2022-08-27T12:48:11;9.48;;;2.42;;
26512;SDS011;14186;53.822;10.152;2022-08-27T12:53:17;9.73;;;2.63;;
26512;SDS011;14186;53.822;10.152;2022-08-27T12:58:21;8.57;;;3.13;;
26512;SDS011;14186;53.822;10.152;2022-08-27T13:03:28;9.52;;;2.70;;
26512;SDS011;14186;53.822;10.152;2022-08-27T13:08:34;11.20;;;2.40;;
26512;SDS011;14186;53.822;10.152;2022-08-27T13:18:36;5.63;;;1.50;;
26512;SDS011;14186;53.822;10.152;2022-08-27T13:23:42;6.28;;;1.92;;
26512;SDS011;14186;53.822;10.152;2022-08-27T13:28:42;7.72;;;1.33;;
26512;SDS011;14186;53.822;10.152;2022-08-27T13:33:45;8.88;;;1.75;;
26512;SDS011;14186;53.822;10.152;2022-08-27T13:38:45;9.43;;;1.98;;
26512;SDS011;14186;53.822;10.152;2022-08-27T13:43:46;7.32;;;1.55;;
26512;SDS011;14186;53.822;10.152;2022-08-27T13:48:49;5.72;;;1.45;;
26512;SDS011;14186;53.822;10.152;2022-08-27T13:53:51;13.23;;;3.80;;
26512;SDS011;14186;53.822;10.152;2022-08-27T13:59:05;9.55;;;2.05;;
26512;SDS011;14186;53.822;10.152;2022-08-27T14:04:08;6.78;;;1.08;;
26512;SDS011;14186;53.822;10.152;2022-08-27T14:09:10;7.88;;;1.60;;
26512;SDS011;14186;53.822;10.152;2022-08-27T14:14:14;6.68;;;1.50;;
26512;SDS011;14186;53.822;10.152;2022-08-27T14:19:23;5.30;;;1.10;;
26512;SDS011;14186;53.822;10.152;2022-08-27T14:24:24;6.07;;;1.38;;
26512;SDS011;14186;53.822;10.152;2022-08-27T14:29:24;9.80;;;1.42;;
26512;SDS011;14186;53.822;10.152;2022-08-27T14:34:26;5.88;;;1.25;;
26512;SDS011;14186;53.822;10.152;2022-08-27T14:39:26;5.97;;;1.60;;
26512;SDS011;14186;53.822;10.152;2022-08-27T14:44:26;8.15;;;1.33;;
26512;SDS011;14186;53.822;10.152;2022-08-27T14:49:29;6.40;;;1.20;;
26512;SDS011;14186;53.822;10.152;2022-08-27T14:54:30;7.82;;;1.42;;
26512;SDS011;14186;53.822;10.152;2022-08-27T14:59:31;6.90;;;1.60;;
26512;SDS011;14186;53.822;10.152;2022-08-27T15:04:33;6.80;;;1.33;;
26512;SDS011;14186;53.822;10.152;2022-08-27T15:09:36;3.47;;;0.80;;
26512;SDS011;14186;53.822;10.152;2022-08-27T15:14:37;6.10;;;1.25;;
26512;SDS011;14186;53.822;10.152;2022-08-27T15:19:40;8.23;;;1.38;;
26512;SDS011;14186;53.822;10.152;2022-08-27T15:24:41;6.15;;;1.27;;
26512;SDS011;14186;53.822;10.152;2022-08-27T15:29:42;5.68;;;1.20;;
26512;SDS011;14186;53.822;10.152;2022-08-27T15:34:44;5.55;;;1.17;;
26512;SDS011;14186;53.822;10.152;2022-08-27T15:39:44;8.07;;;1.38;;
26512;SDS011;14186;53.822;10.152;2022-08-27T15:44:45;8.55;;;1.60;;
26512;SDS011;14186;53.822;10.152;2022-08-27T15:49:47;11.07;;;1.80;;
26512;SDS011;14186;53.822;10.152;2022-08-27T15:54:47;6.40;;;1.50;;
26512;SDS011;14186;53.822;10.152;2022-08-27T15:59:48;4.23;;;1.20;;
26512;SDS011;14186;53.822;10.152;2022-08-27T16:04:49;10.50;;;2.08;;
26512;SDS011;14186;53.822;10.152;2022-08-27T16:09:50;12.30;;;2.03;;
26512;SDS011;14186;53.822;10.152;2022-08-27T16:14:50;6.45;;;1.98;;
26512;SDS011;14186;53.822;10.152;2022-08-27T16:19:52;8.18;;;1.60;;
26512;SDS011;14186;53.822;10.152;2022-08-27T16:24:52;8.52;;;2.38;;
26512;SDS011;14186;53.822;10.152;2022-08-27T16:29:52;9.77;;;1.60;;
26512;SDS011;14186;53.822;10.152;2022-08-27T16:34:54;8.60;;;1.63;;
26512;SDS011;14186;53.822;10.152;2022-08-27T16:39:54;9.63;;;2.05;;
26512;SDS011;14186;53.822;10.152;2022-08-27T16:44:54;10.13;;;2.50;;
26512;SDS011;14186;53.822;10.152;2022-08-27T16:49:56;10.02;;;2.00;;
26512;SDS011;14186;53.822;10.152;2022-08-27T16:54:57;9.30;;;1.98;;
26512;SDS011;14186;53.822;10.152;2022-08-27T16:59:57;12.23;;;1.70;;
26512;SDS011;14186;53.822;10.152;2022-08-27T17:04:59;7.97;;;2.10;;
26512;SDS011;14186;53.822;10.152;2022-08-27T17:10:00;9.02;;;2.97;;
26512;SDS011;14186;53.822;10.152;2022-08-27T17:15:00;8.63;;;1.80;;
26512;SDS011;14186;53.822;10.152;2022-08-27T17:20:03;8.52;;;1.90;;
26512;SDS011;14186;53.822;10.152;2022-08-27T17:25:04;9.20;;;1.95;;
26512;SDS011;14186;53.822;10.152;2022-08-27T17:30:05;11.25;;;2.15;;
26512;SDS011;14186;53.822;10.152;2022-08-27T17:35:07;10.70;;;1.90;;
26512;SDS011;14186;53.822;10.152;2022-08-27T17:40:08;8.60;;;1.85;;
26512;SDS011;14186;53.822;10.152;2022-08-27T17:45:09;10.68;;;1.70;;
26512;SDS011;14186;53.822;10.152;2022-08-27T17:50:11;10.98;;;2.15;;
26512;SDS011;14186;53.822;10.152;2022-08-27T17:55:11;9.00;;;1.85;;
26512;SDS011;14186;53.822;10.152;2022-08-27T18:00:12;9.15;;;2.40;;
26512;SDS011;14186;53.822;10.152;2022-08-27T18:05:14;10.35;;;2.10;;
26512;SDS011;14186;53.822;10.152;2022-08-27T18:10:16;11.07;;;2.10;;
26512;SDS011;14186;53.822;10.152;2022-08-27T18:15:19;8.75;;;2.03;;
26512;SDS011;14186;53.822;10.152;2022-08-27T18:20:24;8.00;;;2.20;;
26512;SDS011;14186;53.822;10.152;2022-08-27T18:25:25;10.55;;;1.98;;
26512;SDS011;14186;53.822;10.152;2022-08-27T18:30:27;9.32;;;2.15;;
26512;SDS011;14186;53.822;10.152;2022-08-27T18:35:34;14.15;;;2.85;;
26512;SDS011;14186;53.822;10.152;2022-08-27T18:40:36;13.65;;;2.55;;
26512;SDS011;14186;53.822;10.152;2022-08-27T18:45:36;12.20;;;2.45;;
26512;SDS011;14186;53.822;10.152;2022-08-27T18:50:38;12.85;;;2.15;;
26512;SDS011;14186;53.822;10.152;2022-08-27T18:55:42;13.40;;;2.45;;
26512;SDS011;14186;53.822;10.152;2022-08-27T19:00:45;10.82;;;1.90;;
26512;SDS011;14186;53.822;10.152;2022-08-27T19:05:47;8.52;;;2.20;;
26512;SDS011;14186;53.822;10.152;2022-08-27T19:10:49;8.18;;;2.08;;
26512;SDS011;14186;53.822;10.152;2022-08-27T19:15:51;8.98;;;2.05;;
26512;SDS011;14186;53.822;10.152;2022-08-27T19:20:53;17.92;;;4.47;;
26512;SDS011;14186;53.822;10.152;2022-08-27T19:25:53;8.90;;;2.33;;
26512;SDS011;14186;53.822;10.152;2022-08-27T19:30:54;11.45;;;2.78;;
26512;SDS011;14186;53.822;10.152;2022-08-27T19:35:57;12.43;;;2.97;;
26512;SDS011;14186;53.822;10.152;2022-08-27T19:40:58;11.55;;;2.72;;
26512;SDS011;14186;53.822;10.152;2022-08-27T19:45:58;12.75;;;2.97;;
26512;SDS011;14186;53.822;10.152;2022-08-27T19:51:01;10.48;;;3.72;;
26512;SDS011;14186;53.822;10.152;2022-08-27T19:56:01;12.73;;;2.33;;
26512;SDS011;14186;53.822;10.152;2022-08-27T20:01:01;13.77;;;2.90;;
26512;SDS011;14186;53.822;10.152;2022-08-27T20:06:05;11.85;;;2.83;;
26512;SDS011;14186;53.822;10.152;2022-08-27T20:11:06;14.18;;;3.50;;
26512;SDS011;14186;53.822;10.152;2022-08-27T20:16:08;17.05;;;3.03;;
26512;SDS011;14186;53.822;10.152;2022-08-27T20:21:10;14.65;;;4.60;;
26512;SDS011;14186;53.822;10.152;2022-08-27T20:26:12;8.73;;;3.05;;
26512;SDS011;14186;53.822;10.152;2022-08-27T20:31:12;12.45;;;3.38;;
26512;SDS011;14186;53.822;10.152;2022-08-27T20:36:14;19.60;;;3.70;;
26512;SDS011;14186;53.822;10.152;2022-08-27T20:41:14;20.63;;;4.40;;
26512;SDS011;14186;53.822;10.152;2022-08-27T20:46:16;11.77;;;3.72;;
26512;SDS011;14186;53.822;10.152;2022-08-27T20:51:19;14.82;;;3.10;;
26512;SDS011;14186;53.822;10.152;2022-08-27T20:56:19;15.18;;;3.85;;
26512;SDS011;14186;53.822;10.152;2022-08-27T21:01:26;15.73;;;4.38;;
26512;SDS011;14186;53.822;10.152;2022-08-27T21:06:27;12.20;;;5.05;;
26512;SDS011;14186;53.822;10.152;2022-08-27T21:11:28;17.35;;;3.58;;
26512;SDS011;14186;53.822;10.152;2022-08-27T21:16:28;16.30;;;3.47;;
26512;SDS011;14186;53.822;10.152;2022-08-27T21:21:29;14.43;;;4.13;;
26512;SDS011;14186;53.822;10.152;2022-08-27T21:26:29;21.60;;;4.13;;
26512;SDS011;14186;53.822;10.152;2022-08-27T21:31:30;22.40;;;4.72;;
26512;SDS011;14186;53.822;10.152;2022-08-27T21:36:33;17.77;;;4.32;;
26512;SDS011;14186;53.822;10.152;2022-08-27T21:41:34;20.52;;;5.55;;
26512;SDS011;14186;53.822;10.152;2022-08-27T21:46:34;15.45;;;4.50;;
26512;SDS011;14186;53.822;10.152;2022-08-27T21:51:36;11.27;;;3.80;;
26512;SDS011;14186;53.822;10.152;2022-08-27T21:56:36;19.27;;;4.93;;
26512;SDS011;14186;53.822;10.152;2022-08-27T22:01:37;20.17;;;4.20;;
26512;SDS011;14186;53.822;10.152;2022-08-27T22:06:39;16.75;;;3.63;;
26512;SDS011;14186;53.822;10.152;2022-08-27T22:11:39;21.33;;;5.45;;
26512;SDS011;14186;53.822;10.152;2022-08-27T22:16:40;18.48;;;4.20;;
26512;SDS011;14186;53.822;10.152;2022-08-27T22:21:41;13.43;;;4.03;;
26512;SDS011;14186;53.822;10.152;2022-08-27T22:26:42;18.83;;;4.50;;
26512;SDS011;14186;53.822;10.152;2022-08-27T22:31:42;17.33;;;4.03;;
26512;SDS011;14186;53.822;10.152;2022-08-27T22:36:44;14.63;;;5.10;;
26512;SDS011;14186;53.822;10.152;2022-08-27T22:41:45;13.70;;;3.80;;
26512;SDS011;14186;53.822;10.152;2022-08-27T22:46:45;17.27;;;3.93;;
26512;SDS011;14186;53.822;10.152;2022-08-27T22:51:47;17.67;;;4.82;;
26512;SDS011;14186;53.822;10.152;2022-08-27T22:56:47;18.02;;;4.13;;
26512;SDS011;14186;53.822;10.152;2022-08-27T23:01:47;13.70;;;4.10;;
26512;SDS011;14186;53.822;10.152;2022-08-27T23:06:49;19.55;;;4.15;;
26512;SDS011;14186;53.822;10.152;2022-08-27T23:11:49;15.65;;;5.50;;
26512;SDS011;14186;53.822;10.152;2022-08-27T23:16:49;17.10;;;5.55;;
26512;SDS011;14186;53.822;10.152;2022-08-27T23:21:51;16.07;;;4.73;;
26512;SDS011;14186;53.822;10.152;2022-08-27T23:26:51;16.90;;;5.13;;
26512;SDS011;14186;53.822;10.152;2022-08-27T23:31:52;20.83;;;5.20;;
26512;SDS011;14186;53.822;10.152;2022-08-27T23:36:53;16.08;;;4.50;;
26512;SDS011;14186;53.822;10.152;2022-08-27T23:41:53;15.93;;;4.10;;
26512;SDS011;14186;53.822;10.152;2022-08-27T23:46:54;13.85;;;4.38;;
26512;SDS011;14186;53.822;10.152;2022-08-27T23:51:55;11.20;;;3.40;;
26512;SDS011;14186;53.822;10.152;2022-08-27T23:56:55;17.15;;;3.67;;
